createdAt,value
2023-09-18T00:00:26.593Z,4.60
2023-09-18T00:03:18.993Z,4.40
2023-09-18T00:05:50.953Z,4.60
2023-09-18T00:08:22.843Z,4.50
2023-09-18T00:10:56.673Z,4.90
2023-09-18T00:13:28.259Z,4.90
2023-09-18T00:16:01.084Z,4.30
2023-09-18T00:18:33.812Z,4.20
2023-09-18T00:21:07.916Z,4.90
2023-09-18T00:23:39.569Z,4.20
2023-09-18T00:26:11.049Z,4.40
2023-09-18T00:28:42.990Z,4.10
2023-09-18T00:31:14.590Z,4.30
2023-09-18T00:33:46.168Z,4.20
2023-09-18T00:36:17.656Z,4.80
2023-09-18T00:38:49.332Z,4.80
2023-09-18T00:41:20.983Z,4.60
2023-09-18T00:43:52.395Z,4.20
2023-09-18T00:46:24.298Z,4.40
2023-09-18T00:48:56.925Z,4.50
2023-09-18T00:51:28.776Z,4.60
2023-09-18T00:54:00.594Z,4.90
2023-09-18T00:56:32.276Z,4.80
2023-09-18T00:59:05.185Z,4.30
2023-09-18T01:01:37.403Z,4.60
2023-09-18T01:04:10.761Z,4.30
2023-09-18T01:06:42.507Z,4.90
2023-09-18T01:09:16.320Z,5.30
2023-09-18T01:11:57.082Z,4.80
2023-09-18T01:14:35.066Z,4.90
2023-09-18T01:17:12.378Z,4.60
2023-09-18T01:19:47.712Z,4.60
2023-09-18T01:22:20.770Z,4.90
2023-09-18T01:24:52.478Z,4.70
2023-09-18T01:27:24.139Z,4.80
2023-09-18T01:29:55.692Z,4.60
2023-09-18T01:32:30.753Z,5.00
2023-09-18T01:35:06.718Z,4.40
2023-09-18T01:37:39.389Z,4.50
2023-09-18T01:40:13.399Z,5.40
2023-09-18T01:42:45.476Z,5.70
2023-09-18T01:45:16.911Z,5.20
2023-09-18T01:47:49.114Z,4.90
2023-09-18T01:50:20.690Z,4.90
2023-09-18T01:52:52.215Z,5.10
2023-09-18T01:55:24.094Z,4.80
2023-09-18T01:57:55.572Z,4.80
2023-09-18T02:00:27.328Z,5.40
2023-09-18T02:03:13.700Z,5.20
2023-09-18T02:05:51.477Z,4.50
2023-09-18T02:08:23.427Z,5.30
2023-09-18T02:10:54.948Z,4.60
2023-09-18T02:13:26.566Z,5.00
2023-09-18T02:15:58.376Z,5.50
2023-09-18T02:18:30.109Z,5.30
2023-09-18T02:21:01.588Z,5.00
2023-09-18T02:23:33.297Z,5.80
2023-09-18T02:26:04.818Z,5.40
2023-09-18T02:28:36.389Z,4.40
2023-09-18T02:31:09.257Z,4.90
2023-09-18T02:33:40.977Z,4.70
2023-09-18T02:36:12.559Z,4.50
2023-09-18T02:38:44.122Z,5.20
2023-09-18T02:41:15.619Z,5.30
2023-09-18T02:43:47.442Z,5.80
2023-09-18T02:46:19.307Z,5.40
2023-09-18T02:48:51.255Z,4.90
2023-09-18T02:51:23.102Z,5.90
2023-09-18T02:53:54.510Z,5.20
2023-09-18T02:56:25.992Z,4.90
2023-09-18T02:58:57.600Z,5.00
2023-09-18T03:01:29.026Z,5.80
2023-09-18T03:04:00.661Z,5.10
2023-09-18T03:06:32.228Z,4.60
2023-09-18T03:09:03.778Z,4.90
2023-09-18T03:11:35.395Z,5.00
2023-09-18T03:14:07.259Z,5.30
2023-09-18T03:16:38.743Z,5.00
2023-09-18T03:19:10.288Z,5.30
2023-09-18T03:21:41.854Z,5.60
2023-09-18T03:24:13.749Z,5.00
2023-09-18T03:26:45.486Z,5.90
2023-09-18T03:29:16.985Z,5.10
2023-09-18T03:31:48.525Z,6.30
2023-09-18T03:34:19.958Z,5.00
2023-09-18T03:36:51.438Z,4.90
2023-09-18T03:39:23.034Z,5.20
2023-09-18T03:41:54.495Z,4.80
2023-09-18T03:44:26.030Z,5.80
2023-09-18T03:46:57.789Z,4.60
2023-09-18T03:49:30.171Z,5.40
2023-09-18T03:52:01.648Z,4.80
2023-09-18T03:54:33.154Z,4.90
2023-09-18T03:57:05.036Z,5.90
2023-09-18T03:59:36.476Z,5.60
2023-09-18T04:02:08.210Z,4.30
2023-09-18T04:04:39.858Z,4.90
2023-09-18T04:07:12.623Z,5.10
2023-09-18T04:09:44.384Z,5.50
2023-09-18T04:12:16.738Z,5.80
2023-09-18T04:14:48.390Z,5.30
2023-09-18T04:17:19.905Z,6.60
2023-09-18T04:19:51.546Z,5.40
2023-09-18T04:22:23.011Z,6.30
2023-09-18T04:24:54.539Z,5.50
2023-09-18T04:27:26.094Z,5.50
2023-09-18T04:29:57.580Z,6.20
2023-09-18T04:32:30.618Z,5.80
2023-09-18T04:35:02.275Z,6.00
2023-09-18T04:37:33.844Z,5.70
2023-09-18T04:40:06.397Z,6.70
2023-09-18T04:42:38.475Z,5.90
2023-09-18T04:45:11.718Z,5.90
2023-09-18T04:47:43.248Z,6.20
2023-09-18T04:50:17.070Z,5.50
2023-09-18T04:52:53.156Z,6.00
2023-09-18T04:55:24.657Z,5.80
2023-09-18T04:57:56.198Z,5.70
2023-09-18T05:00:27.996Z,5.70
2023-09-18T05:03:01.853Z,5.20
2023-09-18T05:05:33.735Z,5.80
2023-09-18T05:08:08.571Z,6.00
2023-09-18T05:10:40.655Z,6.00
2023-09-18T05:13:12.945Z,5.80
2023-09-18T05:15:44.715Z,5.80
2023-09-18T05:18:16.235Z,6.90
2023-09-18T05:20:47.884Z,5.90
2023-09-18T05:23:20.210Z,5.90
2023-09-18T05:25:52.261Z,5.90
2023-09-18T05:28:24.043Z,5.50
2023-09-18T05:30:56.250Z,6.70
2023-09-18T05:33:28.157Z,6.20
2023-09-18T05:35:59.786Z,5.80
2023-09-18T05:38:31.799Z,5.70
2023-09-18T05:41:03.438Z,6.20
2023-09-18T05:43:36.443Z,6.60
2023-09-18T05:46:12.920Z,6.20
2023-09-18T05:48:45.190Z,6.90
2023-09-18T05:51:16.796Z,6.90
2023-09-18T05:53:48.279Z,6.40
2023-09-18T05:56:19.739Z,6.80
2023-09-18T05:58:51.419Z,7.00
2023-09-18T06:01:23.085Z,7.20
2023-09-18T06:03:54.735Z,13.80
2023-09-18T06:06:27.135Z,15.10
2023-09-18T06:08:58.604Z,7.70
2023-09-18T06:11:30.117Z,7.50
2023-09-18T06:14:01.719Z,7.80
2023-09-18T06:16:33.925Z,7.20
2023-09-18T06:19:05.511Z,6.50
2023-09-18T06:21:37.007Z,6.00
2023-09-18T06:24:09.741Z,6.60
2023-09-18T06:26:41.599Z,6.90
2023-09-18T06:29:16.632Z,7.00
2023-09-18T06:31:48.146Z,5.80
2023-09-18T06:34:21.368Z,6.70
2023-09-18T06:36:53.114Z,6.40
2023-09-18T06:39:25.137Z,6.60
2023-09-18T06:41:56.729Z,6.30
2023-09-18T06:44:28.237Z,6.00
2023-09-18T06:46:59.713Z,5.20
2023-09-18T06:49:32.050Z,5.80
2023-09-18T06:52:06.492Z,5.60
2023-09-18T06:54:38.780Z,5.50
2023-09-18T06:57:10.238Z,5.60
2023-09-18T06:59:41.739Z,5.80
2023-09-18T07:02:15.895Z,5.70
2023-09-18T07:04:47.743Z,5.20
2023-09-18T07:07:26.046Z,6.20
2023-09-18T07:12:32.551Z,5.60
2023-09-18T07:15:06.410Z,5.50
2023-09-18T07:17:38.108Z,5.20
2023-09-18T07:20:15.646Z,5.10
2023-09-18T07:22:49.356Z,5.20
2023-09-18T07:25:20.923Z,5.20
2023-09-18T07:27:52.339Z,5.40
2023-09-18T07:30:28.033Z,5.30
2023-09-18T07:32:59.626Z,5.40
2023-09-18T07:35:31.778Z,5.60
2023-09-18T07:38:03.395Z,5.00
2023-09-18T07:40:34.971Z,4.80
2023-09-18T07:43:06.751Z,5.10
2023-09-18T07:45:40.112Z,5.10
2023-09-18T07:48:12.110Z,4.60
2023-09-18T07:50:46.856Z,4.70
2023-09-18T07:53:18.751Z,4.50
2023-09-18T07:55:57.460Z,4.70
2023-09-18T07:58:29.634Z,3.70
2023-09-18T08:01:01.485Z,4.70
2023-09-18T08:03:33.590Z,4.60
2023-09-18T08:06:06.528Z,4.90
2023-09-18T08:08:38.244Z,5.50
2023-09-18T08:11:12.408Z,4.00
2023-09-18T08:13:44.123Z,3.70
2023-09-18T08:16:16.072Z,4.50
2023-09-18T08:18:49.105Z,4.70
2023-09-18T08:21:21.209Z,5.30
2023-09-18T08:23:53.051Z,4.60
2023-09-18T08:26:24.564Z,4.40
2023-09-18T08:28:56.157Z,3.90
2023-09-18T08:31:28.845Z,4.10
2023-09-18T08:34:00.347Z,3.70
2023-09-18T08:36:32.982Z,4.00
2023-09-18T08:39:06.928Z,3.40
2023-09-18T08:41:45.459Z,5.50
2023-09-18T08:44:17.685Z,3.90
2023-09-18T08:46:49.854Z,4.40
2023-09-18T08:49:22.735Z,3.90
2023-09-18T08:51:56.198Z,3.60
2023-09-18T08:54:29.705Z,3.80
2023-09-18T08:57:01.570Z,4.00
2023-09-18T08:59:34.361Z,4.70
2023-09-18T09:02:06.224Z,4.30
2023-09-18T09:04:37.756Z,3.80
2023-09-18T09:07:10.541Z,3.40
2023-09-18T09:09:42.908Z,3.20
2023-09-18T09:12:14.379Z,3.80
2023-09-18T09:15:06.379Z,3.60
2023-09-18T09:17:38.273Z,2.90
2023-09-18T09:20:14.753Z,3.20
2023-09-18T09:22:46.764Z,3.10
2023-09-18T09:25:29.590Z,3.00
2023-09-18T09:28:02.334Z,2.80
2023-09-18T09:30:36.959Z,3.60
2023-09-18T09:33:10.080Z,2.80
2023-09-18T09:35:42.868Z,2.70
2023-09-18T09:38:17.322Z,2.20
2023-09-18T09:40:49.314Z,2.30
2023-09-18T09:43:21.510Z,2.00
2023-09-18T09:45:58.936Z,2.30
2023-09-18T09:48:32.588Z,2.30
2023-09-18T09:51:04.648Z,2.60
2023-09-18T09:53:51.036Z,1.90
2023-09-18T09:56:23.633Z,1.80
2023-09-18T09:59:09.394Z,2.10
2023-09-18T10:01:42.318Z,2.00
2023-09-18T10:04:18.325Z,2.30
2023-09-18T10:06:58.347Z,5.00
2023-09-18T10:09:30.815Z,3.00
2023-09-18T10:12:03.433Z,2.20
2023-09-18T10:14:55.271Z,2.80
2023-09-18T10:17:32.181Z,2.40
2023-09-18T10:20:17.331Z,1.80
2023-09-18T10:22:51.412Z,2.30
2023-09-18T10:25:25.584Z,2.20
2023-09-18T10:27:59.800Z,2.50
2023-09-18T10:30:35.420Z,2.00
2023-09-18T10:33:08.780Z,2.70
2023-09-18T10:35:42.538Z,2.10
2023-09-18T10:38:14.498Z,2.50
2023-09-18T10:40:48.751Z,2.50
2023-09-18T10:43:20.905Z,1.80
2023-09-18T10:45:53.352Z,2.40
2023-09-18T10:48:26.045Z,2.00
2023-09-18T10:50:59.857Z,3.10
2023-09-18T10:53:31.507Z,2.10
2023-09-18T10:56:06.176Z,2.60
2023-09-18T10:58:40.038Z,2.80
2023-09-18T11:01:14.921Z,2.30
2023-09-18T11:03:47.692Z,2.70
2023-09-18T11:06:22.490Z,2.50
2023-09-18T11:08:54.827Z,3.40
2023-09-18T11:11:28.374Z,2.40
2023-09-18T11:14:00.997Z,2.10
2023-09-18T11:16:41.089Z,2.50
2023-09-18T11:19:16.314Z,2.50
2023-09-18T11:21:48.234Z,3.10
2023-09-18T11:24:22.825Z,2.50
2023-09-18T11:26:55.247Z,2.60
2023-09-18T11:29:29.880Z,2.00
2023-09-18T11:32:05.755Z,2.30
2023-09-18T11:37:23.232Z,2.10
2023-09-18T11:39:54.777Z,2.90
2023-09-18T11:42:30.069Z,3.40
2023-09-18T11:45:02.651Z,2.80
2023-09-18T11:47:43.584Z,2.40
2023-09-18T11:50:18.206Z,2.90
2023-09-18T11:52:49.953Z,2.40
2023-09-18T11:55:21.898Z,2.70
2023-09-18T11:57:57.702Z,3.10
2023-09-18T12:00:31.193Z,2.70
2023-09-18T12:03:18.946Z,2.40
2023-09-18T12:05:52.923Z,2.70
2023-09-18T12:08:27.438Z,3.10
2023-09-18T12:10:59.266Z,3.10
2023-09-18T12:13:31.987Z,3.00
2023-09-18T12:16:07.008Z,4.30
2023-09-18T12:18:39.437Z,2.60
2023-09-18T12:21:12.039Z,2.70
2023-09-18T12:23:44.782Z,2.60
2023-09-18T12:26:19.163Z,2.30
2023-09-18T12:28:51.519Z,2.60
2023-09-18T12:31:23.597Z,2.60
2023-09-18T12:33:55.366Z,2.80
2023-09-18T12:36:27.388Z,5.00
2023-09-18T12:39:03.865Z,2.50
2023-09-18T12:41:35.974Z,2.70
2023-09-18T12:44:09.373Z,2.50
2023-09-18T12:46:43.152Z,2.70
2023-09-18T12:49:26.408Z,5.60
2023-09-18T12:52:02.095Z,3.30
2023-09-18T12:54:45.817Z,2.70
2023-09-18T12:57:19.363Z,2.40
2023-09-18T12:59:52.539Z,2.50
2023-09-18T13:02:29.953Z,2.50
2023-09-18T13:05:02.206Z,2.80
2023-09-18T13:07:45.316Z,2.50
2023-09-18T13:10:17.230Z,2.70
2023-09-18T13:12:54.765Z,2.30
2023-09-18T13:15:31.283Z,5.20
2023-09-18T13:18:11.590Z,3.50
2023-09-18T13:20:43.734Z,12.80
2023-09-18T13:23:21.983Z,7.30
2023-09-18T13:26:00.805Z,2.80
2023-09-18T13:28:35.647Z,3.90
2023-09-18T13:31:08.846Z,6.00
2023-09-18T13:33:46.299Z,3.50
2023-09-18T13:36:18.192Z,3.10
2023-09-18T13:38:49.763Z,3.00
2023-09-18T13:41:21.367Z,3.10
2023-09-18T13:43:56.837Z,10.00
2023-09-18T13:46:28.711Z,12.10
2023-09-18T13:49:00.729Z,6.20
2023-09-18T13:51:32.423Z,3.20
2023-09-18T13:54:05.093Z,2.50
2023-09-18T13:56:37.275Z,2.30
2023-09-18T13:59:11.311Z,4.30
2023-09-18T14:01:42.958Z,6.00
2023-09-18T14:04:14.669Z,2.90
2023-09-18T14:06:46.340Z,3.60
2023-09-18T14:09:18.104Z,2.80
2023-09-18T14:11:49.875Z,2.70
2023-09-18T14:14:22.214Z,4.00
2023-09-18T14:16:57.789Z,2.10
2023-09-18T14:19:29.898Z,2.40
2023-09-18T14:22:04.861Z,2.60
2023-09-18T14:24:37.253Z,2.10
2023-09-18T14:27:09.658Z,1.80
2023-09-18T14:29:41.532Z,2.80
2023-09-18T14:32:13.268Z,2.60
2023-09-18T14:34:44.933Z,2.00
2023-09-18T14:37:16.510Z,2.10
2023-09-18T14:39:48.043Z,2.30
2023-09-18T14:42:19.572Z,2.20
2023-09-18T14:44:51.424Z,2.30
2023-09-18T14:47:24.795Z,2.10
2023-09-18T14:49:57.062Z,2.50
2023-09-18T14:52:28.902Z,2.70
2023-09-18T14:55:01.458Z,2.50
2023-09-18T14:57:32.968Z,2.80
2023-09-18T15:00:07.371Z,2.10
2023-09-18T15:02:39.153Z,3.70
2023-09-18T15:05:13.617Z,2.60
2023-09-18T15:07:45.278Z,3.60
2023-09-18T15:10:17.372Z,3.20
2023-09-18T15:12:49.144Z,3.40
2023-09-18T15:15:22.148Z,4.10
2023-09-18T15:17:54.197Z,2.80
2023-09-18T15:20:27.287Z,5.30
2023-09-18T15:22:58.995Z,5.70
2023-09-18T15:25:30.548Z,5.10
2023-09-18T15:28:01.975Z,3.60
2023-09-18T15:30:33.522Z,3.80
2023-09-18T15:33:06.637Z,3.00
2023-09-18T15:35:38.658Z,8.30
2023-09-18T15:38:10.418Z,10.30
2023-09-18T15:40:41.909Z,5.00
2023-09-18T15:43:13.571Z,6.30
2023-09-18T15:45:45.139Z,3.70
2023-09-18T15:48:18.960Z,2.50
2023-09-18T15:50:51.113Z,2.30
2023-09-18T15:53:23.129Z,5.40
2023-09-18T15:55:55.082Z,4.60
2023-09-18T15:58:27.027Z,4.20
2023-09-18T16:00:59.287Z,2.90
2023-09-18T16:03:31.629Z,3.50
2023-09-18T16:06:05.487Z,3.20
2023-09-18T16:08:38.298Z,2.60
2023-09-18T16:11:10.088Z,2.70
2023-09-18T16:13:41.635Z,2.90
2023-09-18T16:16:13.268Z,2.50
2023-09-18T16:18:45.044Z,4.00
2023-09-18T16:21:16.550Z,3.20
2023-09-18T16:23:47.988Z,3.00
2023-09-18T16:26:19.850Z,3.00
2023-09-18T16:28:51.352Z,3.60
2023-09-18T16:31:22.836Z,4.70
2023-09-18T16:33:54.836Z,4.00
2023-09-18T16:36:27.299Z,2.70
2023-09-18T16:38:58.893Z,4.50
2023-09-18T16:41:31.054Z,7.10
2023-09-18T16:44:04.202Z,4.10
2023-09-18T16:46:36.906Z,5.50
2023-09-18T16:49:10.952Z,2.30
2023-09-18T16:51:42.940Z,3.20
2023-09-18T16:54:17.212Z,3.20
2023-09-18T16:56:49.808Z,2.10
2023-09-18T16:59:24.555Z,3.20
2023-09-18T17:01:56.197Z,2.70
2023-09-18T17:04:27.765Z,2.30
2023-09-18T17:06:59.821Z,2.70
2023-09-18T17:09:31.317Z,2.60
2023-09-18T17:12:03.224Z,2.30
2023-09-18T17:14:34.787Z,2.40
2023-09-18T17:17:06.452Z,2.60
2023-09-18T17:19:37.991Z,2.70
2023-09-18T17:22:09.378Z,2.30
2023-09-18T17:24:42.317Z,4.00
2023-09-18T17:27:13.767Z,2.50
2023-09-18T17:29:45.628Z,2.50
2023-09-18T17:32:17.534Z,2.50
2023-09-18T17:34:48.978Z,2.80
2023-09-18T17:37:20.648Z,2.70
2023-09-18T17:39:52.131Z,2.90
2023-09-18T17:42:23.564Z,2.00
2023-09-18T17:44:55.299Z,2.60
2023-09-18T17:47:26.828Z,2.60
2023-09-18T17:49:58.253Z,1.90
2023-09-18T17:52:29.761Z,2.40
2023-09-18T17:55:05.969Z,2.10
2023-09-18T17:57:39.710Z,2.50
2023-09-18T18:00:16.689Z,2.60
2023-09-18T18:02:48.826Z,2.70
2023-09-18T18:05:26.388Z,2.20
2023-09-18T18:08:00.374Z,2.90
2023-09-18T18:10:32.433Z,3.00
2023-09-18T18:13:04.170Z,2.70
2023-09-18T18:15:39.377Z,2.10
2023-09-18T18:18:13.910Z,2.30
2023-09-18T18:20:47.489Z,2.30
2023-09-18T18:23:19.049Z,2.30
2023-09-18T18:25:54.158Z,2.20
2023-09-18T18:28:28.185Z,2.40
2023-09-18T18:30:59.990Z,2.40
2023-09-18T18:33:32.013Z,2.30
2023-09-18T18:36:04.650Z,2.40
2023-09-18T18:38:36.993Z,2.60
2023-09-18T18:41:09.028Z,2.40
2023-09-18T18:43:41.412Z,2.20
2023-09-18T18:46:13.595Z,2.50
2023-09-18T18:48:45.619Z,2.10
2023-09-18T18:51:19.430Z,2.60
2023-09-18T18:53:52.179Z,2.30
2023-09-18T18:56:23.699Z,2.40
2023-09-18T18:58:55.164Z,2.20
2023-09-18T19:01:28.061Z,2.40
2023-09-18T19:04:00.449Z,2.00
2023-09-18T19:06:32.504Z,2.90
2023-09-18T19:09:05.602Z,2.00
2023-09-18T19:11:37.444Z,2.50
2023-09-18T19:14:09.665Z,2.80
2023-09-18T19:16:41.455Z,2.20
2023-09-18T19:19:12.923Z,2.10
2023-09-18T19:21:44.313Z,2.60
2023-09-18T19:24:16.268Z,2.30
2023-09-18T19:26:47.718Z,2.10
2023-09-18T19:29:19.808Z,2.00
2023-09-18T19:31:51.270Z,2.30
2023-09-18T19:34:22.760Z,2.10
2023-09-18T19:37:08.104Z,2.60
2023-09-18T19:39:40.318Z,2.40
2023-09-18T19:42:11.825Z,2.00
2023-09-18T19:44:45.851Z,2.40
2023-09-18T19:47:18.606Z,2.40
2023-09-18T19:49:50.376Z,2.10
2023-09-18T19:52:23.099Z,2.10
2023-09-18T19:54:55.065Z,2.40
2023-09-18T19:57:26.954Z,2.40
2023-09-18T20:00:00.159Z,2.20
2023-09-18T20:02:32.273Z,2.10
2023-09-18T20:05:04.888Z,2.00
2023-09-18T20:07:36.464Z,2.30
2023-09-18T20:10:12.174Z,1.70
2023-09-18T20:12:44.151Z,2.40
2023-09-18T20:15:18.117Z,1.70
2023-09-18T20:17:52.805Z,2.70
2023-09-18T20:20:27.470Z,2.40
2023-09-18T20:22:59.735Z,2.10
2023-09-18T20:25:32.294Z,2.20
2023-09-18T20:28:05.172Z,2.40
2023-09-18T20:30:37.848Z,2.10
2023-09-18T20:33:10.108Z,2.20
2023-09-18T20:35:42.613Z,2.00
2023-09-18T20:38:15.144Z,1.90
2023-09-18T20:40:47.747Z,1.80
2023-09-18T20:43:25.476Z,2.00
2023-09-18T20:45:59.116Z,2.30
2023-09-18T20:48:31.799Z,2.00
2023-09-18T20:51:04.237Z,2.10
2023-09-18T20:53:36.107Z,1.60
2023-09-18T20:56:07.954Z,2.40
2023-09-18T20:58:40.132Z,2.10
2023-09-18T21:01:12.305Z,2.20
2023-09-18T21:03:44.133Z,2.40
2023-09-18T21:06:16.154Z,2.00
2023-09-18T21:08:48.162Z,1.60
2023-09-18T21:11:21.616Z,2.30
2023-09-18T21:13:54.923Z,2.30
2023-09-18T21:16:26.677Z,2.20
2023-09-18T21:18:58.375Z,2.10
2023-09-18T21:21:30.083Z,2.20
2023-09-18T21:24:01.818Z,1.80
2023-09-18T21:26:33.719Z,2.00
2023-09-18T21:29:06.376Z,1.70
2023-09-18T21:31:39.216Z,1.80
2023-09-18T21:34:11.643Z,2.20
2023-09-18T21:36:43.256Z,2.10
2023-09-18T21:39:14.767Z,2.50
2023-09-18T21:41:46.952Z,2.20
2023-09-18T21:44:18.412Z,2.00
2023-09-18T21:46:50.095Z,1.80
2023-09-18T21:49:21.493Z,2.30
2023-09-18T21:51:53.539Z,2.00
2023-09-18T21:54:25.145Z,2.50
2023-09-18T21:56:56.740Z,1.80
2023-09-18T21:59:28.305Z,2.10
2023-09-18T22:01:59.778Z,2.10
2023-09-18T22:04:31.316Z,1.80
2023-09-18T22:07:02.775Z,2.00
2023-09-18T22:09:34.213Z,2.00
2023-09-18T22:12:07.706Z,2.00
2023-09-18T22:14:39.228Z,1.70
2023-09-18T22:17:10.697Z,2.00
2023-09-18T22:19:43.759Z,1.80
2023-09-18T22:22:15.967Z,2.10
2023-09-18T22:24:49.209Z,1.80
2023-09-18T22:27:20.883Z,1.60
2023-09-18T22:29:52.812Z,2.00
2023-09-18T22:32:25.249Z,1.80
2023-09-18T22:34:57.024Z,1.90
2023-09-18T22:37:28.583Z,1.90
2023-09-18T22:40:07.950Z,1.80
2023-09-18T22:43:15.949Z,1.80
2023-09-18T22:46:23.151Z,2.20
2023-09-18T22:49:29.925Z,1.90
2023-09-18T22:52:37.120Z,1.70
2023-09-18T22:55:09.431Z,2.40
2023-09-18T22:57:43.101Z,2.20
2023-09-18T23:00:19.112Z,1.80
2023-09-18T23:02:51.160Z,1.60
2023-09-18T23:05:25.267Z,2.10
2023-09-18T23:08:00.990Z,1.90
2023-09-18T23:10:32.703Z,1.80
2023-09-18T23:13:05.250Z,2.10
2023-09-18T23:15:38.326Z,1.80
2023-09-18T23:18:10.675Z,1.70
2023-09-18T23:20:42.303Z,1.80
2023-09-18T23:23:14.133Z,2.20
2023-09-18T23:25:46.555Z,1.90
2023-09-18T23:28:18.113Z,2.10
2023-09-18T23:30:50.055Z,1.70
2023-09-18T23:33:22.575Z,2.00
2023-09-18T23:35:54.610Z,1.80
2023-09-18T23:38:27.868Z,1.50
2023-09-18T23:41:02.824Z,1.80
2023-09-18T23:43:37.477Z,2.30
2023-09-18T23:46:12.029Z,1.60
2023-09-18T23:48:45.835Z,1.50
2023-09-18T23:51:17.467Z,1.60
2023-09-18T23:53:49.311Z,1.40
2023-09-18T23:56:23.720Z,1.80
2023-09-18T23:58:56.352Z,1.60
